Time;durP1;ratioP1;P1;durP2;ratioP2;P2;SDS_P1;SDS_P2;PMS_P1;PMS_P2;Temp;Humidity;BMP_temperature;BMP_pressure;BME280_temperature;BME280_humidity;BME280_pressure;Samples;Min_cycle;Max_cycle;Signal;HPM_P1;HPM_P2
2023/12/18 00:01:29;;;;;;;;;;;;;;;15.91;42.87;102568.28;4961168;28;1073;-51
2023/12/18 00:03:54;;;;;;;;;;;;;;;15.68;43.74;102564.78;4960927;28;1046;-51
2023/12/18 00:06:20;;;;;;;;;;;;;;;17.09;40.57;102559.72;4965590;28;1989;-52
2023/12/18 00:08:45;;;;;;;;;;;;;;;16.29;42.30;102557.00;4960926;28;1109;-53
2023/12/18 00:11:11;;;;;;;;;;;;;;;15.69;43.40;102550.56;4959568;29;1077;-50
2023/12/18 00:13:37;;;;;;;;;;;;;;;16.28;42.47;102556.13;4960744;28;1022;-50
2023/12/18 00:16:02;;;;;;;;;;;;;;;17.30;40.18;102564.97;4960805;28;1113;-50
2023/12/18 00:18:28;;;;;;;;;;;;;;;16.21;42.26;102554.69;4961057;28;1235;-50
2023/12/18 00:20:53;;;;;;;;;;;;;;;15.71;43.25;102558.47;4960706;28;1014;-52
2023/12/18 00:23:19;;;;;;;;;;;;;;;15.38;44.24;102565.88;4961013;28;1267;-54
2023/12/18 00:25:44;;;;;;;;;;;;;;;16.71;41.47;102562.31;4960471;28;1906;-53
2023/12/18 00:28:10;;;;;;;;;;;;;;;17.05;40.65;102552.78;4960689;28;1018;-52
2023/12/18 00:30:35;;;;;;;;;;;;;;;16.10;42.32;102549.81;4960957;28;1049;-51
2023/12/18 00:33:01;;;;;;;;;;;;;;;15.69;43.53;102562.97;4960427;28;1088;-51
2023/12/18 00:35:28;;;;;;;;;;;;;;;16.15;42.70;102563.75;4973605;28;1426;-50
2023/12/18 00:37:54;;;;;;;;;;;;;;;17.15;40.49;102561.22;4960225;28;1057;-49
2023/12/18 00:40:19;;;;;;;;;;;;;;;16.09;42.48;102560.50;4960187;28;1279;-51
2023/12/18 00:42:47;;;;;;;;;;;;;;;15.66;43.71;102556.84;4960517;28;1034;-53
2023/12/18 00:45:13;;;;;;;;;;;;;;;15.58;43.61;102552.78;4960268;28;1981;-52
2023/12/18 00:47:39;;;;;;;;;;;;;;;17.09;40.61;102549.09;4960903;28;1064;-51
2023/12/18 00:50:07;;;;;;;;;;;;;;;16.37;41.71;102523.00;4978484;28;1069;-51
2023/12/18 00:52:33;;;;;;;;;;;;;;;15.74;43.30;102515.88;4967356;28;1025;-50
2023/12/18 00:54:58;;;;;;;;;;;;;;;15.36;44.03;102509.41;4959933;28;1077;-51
2023/12/18 00:57:24;;;;;;;;;;;;;;;16.77;41.40;102515.06;4959004;28;1108;-53
2023/12/18 00:59:49;;;;;;;;;;;;;;;16.93;40.60;102518.81;4973381;28;1076;-53
2023/12/18 01:02:15;;;;;;;;;;;;;;;16.00;42.48;102520.13;4960305;28;1093;-51
2023/12/18 01:04:40;;;;;;;;;;;;;;;15.61;43.68;102513.75;4959603;28;1976;-52
2023/12/18 01:07:06;;;;;;;;;;;;;;;15.61;43.87;102512.88;4960312;28;1073;-50
2023/12/18 01:09:31;;;;;;;;;;;;;;;17.05;40.66;102501.44;4960515;28;1172;-51
2023/12/18 01:11:57;;;;;;;;;;;;;;;16.50;41.65;102504.72;4959799;29;1105;-50
2023/12/18 01:14:22;;;;;;;;;;;;;;;15.73;43.31;102498.25;4959549;28;1140;-51
2023/12/18 01:16:48;;;;;;;;;;;;;;;15.75;43.36;102499.03;4959941;28;1084;-51
2023/12/18 01:19:13;;;;;;;;;;;;;;;17.16;40.41;102498.28;4972214;28;1092;-52
2023/12/18 01:21:39;;;;;;;;;;;;;;;16.18;42.24;102492.88;4959904;28;1149;-51
2023/12/18 01:24:05;;;;;;;;;;;;;;;15.71;43.14;102500.97;4959705;28;1049;-49
2023/12/18 01:26:30;;;;;;;;;;;;;;;15.67;43.40;102492.25;4970542;28;1907;-52
2023/12/18 01:28:56;;;;;;;;;;;;;;;17.15;40.28;102484.09;4961027;28;1131;-50
2023/12/18 01:31:22;;;;;;;;;;;;;;;16.48;41.42;102482.69;4959869;28;1113;-53
2023/12/18 01:33:47;;;;;;;;;;;;;;;15.76;43.29;102477.75;4959634;28;1157;-52
2023/12/18 01:36:13;;;;;;;;;;;;;;;15.48;43.80;102486.81;4959556;28;1077;-51
2023/12/18 01:38:38;;;;;;;;;;;;;;;16.84;40.95;102491.72;4959273;28;1184;-52
2023/12/18 01:41:04;;;;;;;;;;;;;;;16.79;41.13;102484.88;4959219;28;1141;-53
2023/12/18 01:43:29;;;;;;;;;;;;;;;15.91;42.76;102484.19;4963958;28;1073;-52
2023/12/18 01:45:58;;;;;;;;;;;;;;;15.58;43.42;102487.31;4967339;28;1899;-49
2023/12/18 01:48:24;;;;;;;;;;;;;;;16.81;41.18;102483.00;4959412;28;1097;-51
2023/12/18 01:50:50;;;;;;;;;;;;;;;16.82;40.71;102487.38;4959170;28;1029;-53
2023/12/18 01:53:16;;;;;;;;;;;;;;;15.99;42.72;102483.03;4959080;28;1078;-51
2023/12/18 01:55:41;;;;;;;;;;;;;;;15.59;43.38;102485.53;4959299;28;1062;-49
2023/12/18 01:58:07;;;;;;;;;;;;;;;15.60;43.47;102489.94;4957825;28;1097;-52
2023/12/18 02:00:32;;;;;;;;;;;;;;;17.09;40.30;102495.91;4959316;28;1050;-53
2023/12/18 02:02:58;;;;;;;;;;;;;;;16.48;41.56;102492.47;4957574;28;1062;-50
2023/12/18 02:05:23;;;;;;;;;;;;;;;15.84;43.11;102488.03;4939008;29;1918;-49
2023/12/18 02:07:49;;;;;;;;;;;;;;;15.53;43.70;102499.94;4956912;28;1130;-50
2023/12/18 02:10:15;;;;;;;;;;;;;;;16.98;40.67;102490.22;4957939;29;1054;-50
2023/12/18 02:12:40;;;;;;;;;;;;;;;16.77;40.93;102487.59;4958871;28;1033;-53
2023/12/18 02:15:06;;;;;;;;;;;;;;;15.91;42.44;102483.34;4959019;28;1065;-52
2023/12/18 02:17:31;;;;;;;;;;;;;;;15.49;43.78;102480.63;4958417;28;1137;-52
2023/12/18 02:20:04;;;;;;;;;;;;;;;15.94;42.97;102466.41;4958747;28;1053;-52
2023/12/18 02:22:34;;;;;;;;;;;;;;;17.30;40.13;102471.03;4958598;28;1112;-51
2023/12/18 02:24:59;;;;;;;;;;;;;;;16.40;41.51;102475.06;4958822;28;1895;-49
2023/12/18 02:27:25;;;;;;;;;;;;;;;15.81;42.62;102472.25;4958470;28;1100;-52
2023/12/18 02:29:50;;;;;;;;;;;;;;;15.50;43.63;102470.84;4970003;28;1053;-53
2023/12/18 02:32:16;;;;;;;;;;;;;;;16.89;40.78;102472.88;4959066;28;1107;-50
2023/12/18 02:34:41;;;;;;;;;;;;;;;16.43;41.35;102473.19;4958163;28;1054;-51
2023/12/18 02:37:07;;;;;;;;;;;;;;;15.83;42.69;102469.53;4958716;28;1078;-51
2023/12/18 02:39:32;;;;;;;;;;;;;;;15.82;43.12;102466.00;4958113;28;1023;-51
2023/12/18 02:41:58;;;;;;;;;;;;;;;17.20;40.08;102455.50;4958303;28;1223;-50
2023/12/18 02:44:23;;;;;;;;;;;;;;;16.24;41.83;102458.09;4958504;28;1971;-54
2023/12/18 02:46:48;;;;;;;;;;;;;;;15.67;43.36;102446.28;4959700;28;1156;-51
2023/12/18 02:49:14;;;;;;;;;;;;;;;15.62;43.57;102449.13;4969885;28;1135;-49
2023/12/18 02:51:40;;;;;;;;;;;;;;;17.13;40.48;102451.44;4959008;28;1076;-50
2023/12/18 02:54:05;;;;;;;;;;;;;;;16.34;41.70;102448.78;4956872;28;1103;-51
2023/12/18 02:56:31;;;;;;;;;;;;;;;15.73;43.10;102438.06;4958252;28;1068;-49
2023/12/18 02:58:56;;;;;;;;;;;;;;;15.83;43.07;102429.72;4957914;28;1144;-50
2023/12/18 03:01:22;;;;;;;;;;;;;;;17.21;39.92;102438.63;4958250;28;1212;-52
2023/12/18 03:03:47;;;;;;;;;;;;;;;16.50;41.09;102433.00;4958240;28;1195;-49
2023/12/18 03:06:13;;;;;;;;;;;;;;;15.81;42.91;102416.53;4958176;28;1910;-53
2023/12/18 03:08:38;;;;;;;;;;;;;;;15.52;43.70;102410.66;4958521;28;1109;-54
2023/12/18 03:11:04;;;;;;;;;;;;;;;16.65;41.35;102412.84;4958038;28;1025;-53
2023/12/18 03:13:29;;;;;;;;;;;;;;;16.89;40.57;102423.25;4958237;28;1156;-50
2023/12/18 03:15:55;;;;;;;;;;;;;;;15.94;42.59;102419.50;4957950;28;1061;-52
2023/12/18 03:18:21;;;;;;;;;;;;;;;15.52;43.46;102405.34;4957363;28;926;-51
2023/12/18 03:20:47;;;;;;;;;;;;;;;15.57;43.85;102410.44;4959891;28;1105;-53
2023/12/18 03:23:12;;;;;;;;;;;;;;;17.04;40.45;102411.94;4961757;28;1056;-52
2023/12/18 03:25:38;;;;;;;;;;;;;;;16.50;41.29;102419.72;4961788;28;1906;-50
2023/12/18 03:28:03;;;;;;;;;;;;;;;15.73;42.85;102411.53;4962086;28;1108;-52
2023/12/18 03:30:29;;;;;;;;;;;;;;;15.44;43.68;102410.97;4961676;28;1100;-51
2023/12/18 03:32:55;;;;;;;;;;;;;;;16.60;41.50;102424.63;4962028;28;1172;-51
2023/12/18 03:35:20;;;;;;;;;;;;;;;17.03;40.12;102424.41;4961563;28;1061;-51
2023/12/18 03:37:46;;;;;;;;;;;;;;;16.03;42.13;102436.88;4961772;28;1125;-50
2023/12/18 03:40:11;;;;;;;;;;;;;;;15.56;43.28;102428.19;4960833;28;1075;-53
2023/12/18 03:42:38;;;;;;;;;;;;;;;15.73;41.64;102308.06;4961694;28;920;-56
2023/12/18 03:45:04;;;;;;;;;;;;;;;17.23;39.75;102433.22;4961987;28;1981;-49
2023/12/18 03:47:30;;;;;;;;;;;;;;;16.18;41.74;102435.34;4961719;28;1100;-50
2023/12/18 03:49:55;;;;;;;;;;;;;;;15.73;42.87;102442.53;4961533;28;1076;-51
2023/12/18 03:52:20;;;;;;;;;;;;;;;16.14;42.45;102442.56;4961607;28;1135;-53
2023/12/18 03:54:46;;;;;;;;;;;;;;;16.85;40.48;102439.44;4960812;28;1216;-51
2023/12/18 03:57:12;;;;;;;;;;;;;;;15.96;42.38;102435.38;4962160;28;1174;-50
2023/12/18 03:59:37;;;;;;;;;;;;;;;15.54;43.24;102432.69;4961097;28;1289;-52
2023/12/18 04:02:03;;;;;;;;;;;;;;;16.49;41.66;102433.06;4961326;28;1556;-53
2023/12/18 04:04:28;;;;;;;;;;;;;;;17.06;40.27;102428.69;4961192;28;1973;-51
2023/12/18 04:06:54;;;;;;;;;;;;;;;16.07;42.13;102419.00;4961481;28;890;-53
2023/12/18 04:09:19;;;;;;;;;;;;;;;15.63;42.97;102426.13;4965087;28;1096;-53
2023/12/18 04:11:45;;;;;;;;;;;;;;;16.46;41.72;102425.25;4969762;28;1068;-54
2023/12/18 04:14:10;;;;;;;;;;;;;;;16.89;40.65;102414.41;4960765;28;1232;-51
2023/12/18 04:16:36;;;;;;;;;;;;;;;16.04;42.16;102420.00;4971847;28;1061;-53
2023/12/18 04:19:01;;;;;;;;;;;;;;;15.54;43.40;102424.72;4962915;28;1040;-52
2023/12/18 04:21:27;;;;;;;;;;;;;;;16.80;41.03;102421.00;4960928;28;1129;-53
2023/12/18 04:23:52;;;;;;;;;;;;;;;16.92;40.57;102419.56;4973414;28;1192;-54
2023/12/18 04:26:18;;;;;;;;;;;;;;;16.00;42.34;102408.66;4960926;28;2046;-47
2023/12/18 04:28:43;;;;;;;;;;;;;;;15.59;43.12;102412.13;4961156;28;1113;-53
2023/12/18 04:31:09;;;;;;;;;;;;;;;15.93;42.93;102412.47;4959889;28;1065;-55
2023/12/18 04:33:34;;;;;;;;;;;;;;;17.28;39.79;102425.91;4960631;28;1076;-51
2023/12/18 04:36:00;;;;;;;;;;;;;;;16.52;41.17;102425.84;4959240;28;1397;-49
2023/12/18 04:38:27;;;;;;;;;;;;;;;15.88;42.80;102415.31;4960552;28;1150;-50
2023/12/18 04:40:53;;;;;;;;;;;;;;;15.50;43.58;102418.69;4963698;28;1265;-51
2023/12/18 04:43:18;;;;;;;;;;;;;;;16.02;42.53;102421.84;4963997;28;958;-51
2023/12/18 04:45:44;;;;;;;;;;;;;;;17.09;40.15;102424.13;4957163;28;1911;-51
2023/12/18 04:48:09;;;;;;;;;;;;;;;16.09;41.96;102418.00;4951347;29;1018;-50
2023/12/18 04:50:35;;;;;;;;;;;;;;;15.54;43.15;102417.63;4960044;28;1096;-51
2023/12/18 04:53:00;;;;;;;;;;;;;;;16.50;41.59;102421.50;4960313;28;1073;-53
2023/12/18 04:55:26;;;;;;;;;;;;;;;16.99;40.35;102418.34;4959924;28;1069;-53
2023/12/18 04:57:51;;;;;;;;;;;;;;;16.05;42.37;102412.91;4960204;28;1148;-53
2023/12/18 05:00:17;;;;;;;;;;;;;;;15.63;43.00;102410.22;4975778;28;1061;-52
2023/12/18 05:02:42;;;;;;;;;;;;;;;16.37;41.92;102419.44;4969697;28;1080;-53
2023/12/18 05:05:08;;;;;;;;;;;;;;;17.34;39.61;102414.94;4963103;28;1988;-54
2023/12/18 05:07:33;;;;;;;;;;;;;;;16.25;41.82;102410.22;4963254;28;826;-50
2023/12/18 05:09:59;;;;;;;;;;;;;;;15.75;43.09;102401.72;4963139;28;1104;-50
2023/12/18 05:12:24;;;;;;;;;;;;;;;15.41;43.83;102393.38;4969869;28;1168;-50
2023/12/18 05:14:51;;;;;;;;;;;;;;;16.64;41.50;102400.50;4961824;28;1133;-48
2023/12/18 05:17:16;;;;;;;;;;;;;;;16.84;40.53;102406.66;4959460;28;1029;-55
2023/12/18 05:19:42;;;;;;;;;;;;;;;15.94;42.54;102410.66;4961509;28;1053;-53
2023/12/18 05:22:07;;;;;;;;;;;;;;;15.53;43.51;102407.09;4975299;28;2446;-54
2023/12/18 05:24:33;;;;;;;;;;;;;;;16.01;42.54;102398.91;4964146;28;1911;-54
2023/12/18 05:26:58;;;;;;;;;;;;;;;17.36;39.89;102401.56;4969226;28;1126;-53
2023/12/18 05:29:24;;;;;;;;;;;;;;;16.05;42.02;102411.09;4961193;28;1499;-52
2023/12/18 05:31:49;;;;;;;;;;;;;;;16.43;41.90;102410.31;4961901;28;908;-54
2023/12/18 05:34:15;;;;;;;;;;;;;;;17.19;39.69;102402.38;4972055;28;1120;-57
2023/12/18 05:36:40;;;;;;;;;;;;;;;15.78;43.00;102398.94;4965637;28;1104;-55
2023/12/18 05:39:06;;;;;;;;;;;;;;;17.68;39.42;102390.22;4967452;28;1302;-55
2023/12/18 05:41:31;;;;;;;;;;;;;;;16.61;41.09;102390.00;4965943;28;1112;-55
2023/12/18 05:43:57;;;;;;;;;;;;;;;15.71;43.10;102399.28;4968771;28;868;-57
2023/12/18 05:46:22;;;;;;;;;;;;;;;17.45;39.56;102390.44;4965060;28;1910;-54
2023/12/18 05:48:48;;;;;;;;;;;;;;;15.92;42.70;102394.81;4970131;28;1040;-51
2023/12/18 05:51:20;;;;;;;;;;;;;;;17.47;39.90;102398.34;4971945;28;997;-54
2023/12/18 05:53:45;;;;;;;;;;;;;;;16.85;40.47;102392.44;4966842;28;2706;-57
2023/12/18 05:56:11;;;;;;;;;;;;;;;15.89;42.86;102387.00;4965174;28;908;-54
2023/12/18 05:58:36;;;;;;;;;;;;;;;17.94;38.64;102388.88;4978308;28;1048;-51
2023/12/18 06:01:02;;;;;;;;;;;;;;;16.35;42.00;102392.06;4965354;28;1029;-55
2023/12/18 06:03:27;;;;;;;;;;;;;;;18.25;38.15;102383.72;4969138;28;1069;-54
2023/12/18 06:05:53;;;;;;;;;;;;;;;17.60;39.15;102385.31;4971819;28;1975;-57
2023/12/18 06:08:18;;;;;;;;;;;;;;;16.39;41.57;102376.84;4967778;28;911;-53
2023/12/18 06:10:44;;;;;;;;;;;;;;;17.05;40.81;102379.97;4959981;28;1071;-53
2023/12/18 06:13:09;;;;;;;;;;;;;;;16.45;41.45;102373.91;4969509;28;1088;-51
2023/12/18 06:15:35;;;;;;;;;;;;;;;16.10;42.38;102371.94;4971289;28;1483;-56
2023/12/18 06:18:00;;;;;;;;;;;;;;;17.72;39.45;102370.47;4967848;28;1057;-51
2023/12/18 06:20:26;;;;;;;;;;;;;;;16.53;41.40;102366.44;4971811;28;896;-53
2023/12/18 06:22:51;;;;;;;;;;;;;;;16.94;41.35;102380.50;4958585;28;1072;-57
2023/12/18 06:25:17;;;;;;;;;;;;;;;17.60;39.14;102377.31;4960248;28;1898;-57
2023/12/18 06:27:44;;;;;;;;;;;;;;;16.26;42.00;102382.75;4969640;28;1168;-56
2023/12/18 06:30:09;;;;;;;;;;;;;;;18.01;38.75;102380.53;4973767;28;1104;-56
2023/12/18 06:32:35;;;;;;;;;;;;;;;16.97;40.67;102380.34;4966874;28;958;-57
2023/12/18 06:35:00;;;;;;;;;;;;;;;16.22;42.00;102367.88;4974051;28;1052;-57
2023/12/18 06:37:26;;;;;;;;;;;;;;;17.01;40.88;102362.44;4959956;28;1141;-57
2023/12/18 06:39:52;;;;;;;;;;;;;;;16.58;41.44;102349.44;4973016;28;1156;-54
2023/12/18 06:42:17;;;;;;;;;;;;;;;16.38;42.12;102340.63;4969774;28;1080;-52
2023/12/18 06:44:43;;;;;;;;;;;;;;;17.90;38.74;102346.53;4957727;29;1968;-58
2023/12/18 06:47:08;;;;;;;;;;;;;;;16.34;42.05;102339.88;4965979;28;1100;-56
2023/12/18 06:49:34;;;;;;;;;;;;;;;17.84;39.28;102356.53;4977393;28;1072;-55
2023/12/18 06:51:59;;;;;;;;;;;;;;;17.18;39.96;102348.38;4976735;28;905;-57
2023/12/18 06:54:26;;;;;;;;;;;;;;;16.63;41.74;102348.28;4975615;28;1112;-56
2023/12/18 06:56:52;;;;;;;;;;;;;;;18.50;37.82;102349.56;4970102;28;1151;-56
2023/12/18 06:59:17;;;;;;;;;;;;;;;16.79;40.88;102346.66;4971759;28;1101;-54
2023/12/18 07:01:43;;;;;;;;;;;;;;;16.33;42.34;102356.75;4970685;28;1176;-55
2023/12/18 07:04:08;;;;;;;;;;;;;;;17.24;40.13;102348.03;4959204;28;1033;-56
2023/12/18 07:06:34;;;;;;;;;;;;;;;16.21;42.12;102338.72;4976090;28;1906;-55
2023/12/18 07:08:59;;;;;;;;;;;;;;;16.89;41.29;102346.16;4971810;28;1009;-55
2023/12/18 07:11:25;;;;;;;;;;;;;;;16.74;41.15;102344.25;4977416;28;1013;-53
2023/12/18 07:13:51;;;;;;;;;;;;;;;15.97;42.83;102344.19;4951491;28;1223;-53
2023/12/18 07:16:23;;;;;;;;;;;;;;;17.90;38.84;102342.03;4976889;28;1064;-57
2023/12/18 07:18:48;;;;;;;;;;;;;;;16.49;41.73;102330.34;4976861;28;1152;-58
2023/12/18 07:21:14;;;;;;;;;;;;;;;18.48;37.98;102331.84;4976949;28;1044;-57
2023/12/18 07:23:40;;;;;;;;;;;;;;;17.62;39.22;102327.53;4975290;28;1072;-57
2023/12/18 07:26:08;;;;;;;;;;;;;;;16.65;41.12;102324.28;4953284;28;1981;-54
2023/12/18 07:28:34;;;;;;;;;;;;;;;17.99;38.71;102324.72;4952546;28;1121;-58
2023/12/18 07:30:59;;;;;;;;;;;;;;;16.54;41.45;102324.81;4957649;28;1010;-58
2023/12/18 07:33:25;;;;;;;;;;;;;;;17.36;40.19;102333.28;4957827;28;1081;-54
2023/12/18 07:35:52;;;;;;;;;;;;;;;17.46;39.63;102324.81;4957760;28;1056;-57
2023/12/18 07:38:17;;;;;;;;;;;;;;;16.46;41.82;102329.63;4957534;28;1125;-55
2023/12/18 07:40:43;;;;;;;;;;;;;;;17.64;39.75;102336.28;4957503;28;1050;-56
2023/12/18 07:43:08;;;;;;;;;;;;;;;17.01;40.63;102330.53;4957406;28;1134;-54
2023/12/18 07:45:34;;;;;;;;;;;;;;;16.24;41.89;102322.66;4957684;28;1902;-55
2023/12/18 07:47:59;;;;;;;;;;;;;;;17.63;39.72;102331.94;4958469;28;1096;-56
2023/12/18 07:50:25;;;;;;;;;;;;;;;16.68;41.31;102336.56;4957637;28;1234;-59
2023/12/18 07:52:50;;;;;;;;;;;;;;;17.28;40.49;102339.91;4957884;28;1037;-55
2023/12/18 07:55:16;;;;;;;;;;;;;;;18.01;38.37;102335.28;4957345;28;1101;-57
2023/12/18 07:57:42;;;;;;;;;;;;;;;16.62;41.41;102337.72;4957643;28;1227;-55
2023/12/18 08:00:08;;;;;;;;;;;;;;;18.10;38.68;102332.97;4965835;28;1128;-54
2023/12/18 08:02:39;;;;;;;;;;;;;;;17.23;40.09;102333.00;4961683;28;1061;-57
2023/12/18 08:05:05;;;;;;;;;;;;;;;16.36;41.86;102327.41;4957041;28;1903;-57
2023/12/18 08:07:31;;;;;;;;;;;;;;;17.78;39.28;102335.59;4960185;28;1109;-57
2023/12/18 08:09:56;;;;;;;;;;;;;;;16.54;41.68;102330.13;4961187;28;1164;-57
2023/12/18 08:12:22;;;;;;;;;;;;;;;17.87;39.23;102326.22;4960972;28;1457;-60
2023/12/18 08:14:47;;;;;;;;;;;;;;;17.40;39.66;102320.66;4961052;28;1149;-59
2023/12/18 08:17:15;;;;;;;;;;;;;;;16.44;41.61;102315.53;4961248;28;1022;-58
2023/12/18 08:19:49;;;;;;;;;;;;;;;18.59;37.59;102311.72;4961430;28;1081;-59
2023/12/18 08:22:15;;;;;;;;;;;;;;;16.86;40.75;102321.53;4977694;28;1156;-56
2023/12/18 08:24:41;;;;;;;;;;;;;;;16.40;41.90;102321.00;4968492;28;1902;-59
2023/12/18 08:27:06;;;;;;;;;;;;;;;17.32;39.99;102314.84;4960796;28;1053;-59
2023/12/18 08:29:32;;;;;;;;;;;;;;;16.39;42.17;102315.75;4960127;28;1263;-54
2023/12/18 08:31:57;;;;;;;;;;;;;;;15.98;43.04;102314.94;4961019;28;1064;-58
2023/12/18 08:34:24;;;;;;;;;;;;;;;15.81;42.97;102326.31;4960248;28;1092;-62
2023/12/18 08:36:49;;;;;;;;;;;;;;;15.62;43.03;102329.75;4960285;28;1256;-59
2023/12/18 08:39:15;;;;;;;;;;;;;;;15.47;43.32;102319.81;4960542;28;1282;-61
2023/12/18 08:41:42;;;;;;;;;;;;;;;15.39;43.22;102312.19;4959394;28;1162;-60
2023/12/18 08:44:09;;;;;;;;;;;;;;;17.20;40.94;102306.56;4960162;28;1339;-59
2023/12/18 08:50:01;;;;;;;;;;;;;;;15.41;44.22;102319.13;4956512;29;1196;-59
2023/12/18 08:52:26;;;;;;;;;;;;;;;15.27;43.78;102305.59;4959941;28;1353;-59
2023/12/18 08:54:52;;;;;;;;;;;;;;;15.13;43.82;102301.75;4959342;28;1147;-59
2023/12/18 08:57:17;;;;;;;;;;;;;;;15.36;44.14;102296.41;4960108;28;1057;-58
2023/12/18 08:59:43;;;;;;;;;;;;;;;15.55;43.65;102277.91;4960243;28;1049;-59
2023/12/18 09:02:09;;;;;;;;;;;;;;;15.10;43.77;102275.38;4960181;28;1069;-58
2023/12/18 09:04:35;;;;;;;;;;;;;;;16.45;43.33;102288.91;4960140;28;1902;-57
2023/12/18 09:07:00;;;;;;;;;;;;;;;16.13;43.72;102273.56;4960536;28;1141;-58
2023/12/18 09:09:26;;;;;;;;;;;;;;;17.07;42.22;102261.09;4959931;28;912;-61
2023/12/18 09:11:51;;;;;;;;;;;;;;;18.23;39.43;102263.94;4960021;28;1140;-58
2023/12/18 09:14:17;;;;;;;;;;;;;;;16.30;43.07;102263.94;4959722;28;1068;-60
2023/12/18 09:16:42;;;;;;;;;;;;;;;15.81;44.13;102253.78;4968379;28;1061;-57
2023/12/18 09:19:08;;;;;;;;;;;;;;;17.04;41.59;102236.47;4963091;28;1077;-59
2023/12/18 09:21:33;;;;;;;;;;;;;;;15.85;44.16;102223.53;4959893;28;867;-58
2023/12/18 09:23:59;;;;;;;;;;;;;;;17.78;40.27;102222.91;4961746;28;1064;-59
2023/12/18 09:26:24;;;;;;;;;;;;;;;16.84;41.83;102225.94;4978333;28;1996;-61
2023/12/18 09:28:50;;;;;;;;;;;;;;;16.08;43.76;102224.28;4964962;28;1267;-58
2023/12/18 09:31:16;;;;;;;;;;;;;;;17.90;39.67;102222.22;4977359;28;1053;-60
2023/12/18 09:33:42;;;;;;;;;;;;;;;16.35;42.49;102218.59;4973937;28;882;-59
2023/12/18 09:36:07;;;;;;;;;;;;;;;16.70;42.36;102217.78;4958670;28;1139;-59
2023/12/18 09:38:33;;;;;;;;;;;;;;;16.76;41.56;102207.72;4975374;28;1113;-58
2023/12/18 09:40:58;;;;;;;;;;;;;;;15.95;43.45;102208.88;4967368;28;1005;-58
2023/12/18 09:43:26;;;;;;;;;;;;;;;17.35;40.76;102203.84;4971327;28;1093;-57
2023/12/18 09:45:52;;;;;;;;;;;;;;;16.05;42.92;102206.69;4965535;28;1966;-58
2023/12/18 09:48:18;;;;;;;;;;;;;;;17.13;41.26;102210.28;4962501;28;1102;-58
2023/12/18 09:54:09;;;;;;;;;;;;;;;16.79;42.10;102203.16;4971634;28;1038;-57
2023/12/18 09:56:34;;;;;;;;;;;;;;;17.59;39.60;102192.84;4970811;28;1104;-58
2023/12/18 09:59:00;;;;;;;;;;;;;;;16.27;42.52;102201.22;4959061;28;1136;-56
2023/12/18 10:01:26;;;;;;;;;;;;;;;16.27;42.78;102198.56;4971017;28;1042;-57
2023/12/18 10:03:51;;;;;;;;;;;;;;;16.66;41.62;102209.09;4958773;28;1176;-55
2023/12/18 10:06:17;;;;;;;;;;;;;;;15.97;43.12;102208.81;4971944;28;1984;-55
2023/12/18 10:08:42;;;;;;;;;;;;;;;17.77;39.88;102191.94;4964760;28;1096;-57
2023/12/18 10:11:12;;;;;;;;;;;;;;;16.27;42.56;102198.56;4977460;28;1196;-57
2023/12/18 10:13:39;;;;;;;;;;;;;;;15.99;41.86;102082.25;4964204;28;1128;-60
2023/12/18 10:16:04;;;;;;;;;;;;;;;17.12;40.76;102187.31;4964851;28;993;-59
2023/12/18 10:18:30;;;;;;;;;;;;;;;16.33;42.42;102183.28;4964268;28;1077;-59
2023/12/18 10:20:55;;;;;;;;;;;;;;;18.16;39.19;102187.13;4974085;28;1261;-59
2023/12/18 10:23:21;;;;;;;;;;;;;;;16.61;41.78;102193.41;4965112;28;1160;-60
2023/12/18 10:25:46;;;;;;;;;;;;;;;16.05;43.08;102180.16;4964912;28;1898;-59
2023/12/18 10:28:12;;;;;;;;;;;;;;;17.20;41.17;102178.91;4965182;28;1064;-61
2023/12/18 10:30:38;;;;;;;;;;;;;;;16.35;42.26;102168.97;4964851;28;1002;-60
2023/12/18 10:33:06;;;;;;;;;;;;;;;15.87;43.51;102166.78;4972299;28;1224;-60
2023/12/18 10:35:32;;;;;;;;;;;;;;;16.60;42.19;102165.09;4957458;29;1137;-60
2023/12/18 10:37:57;;;;;;;;;;;;;;;16.78;41.30;102165.13;4958556;28;1102;-60
2023/12/18 10:40:25;;;;;;;;;;;;;;;16.01;43.16;102171.50;4971214;28;1204;-59
2023/12/18 10:42:59;;;;;;;;;;;;;;;15.54;43.68;102160.34;4956876;29;1487;-59
2023/12/18 10:45:25;;;;;;;;;;;;;;;15.45;43.81;102152.78;4957790;28;1977;-60
2023/12/18 10:47:50;;;;;;;;;;;;;;;16.87;41.76;102148.69;4963854;28;1160;-60
2023/12/18 10:50:19;;;;;;;;;;;;;;;16.45;41.87;102150.78;4958083;28;1096;-60
2023/12/18 10:52:46;;;;;;;;;;;;;;;15.61;43.99;102146.78;4972196;28;1022;-60
2023/12/18 10:55:12;;;;;;;;;;;;;;;17.34;40.49;102135.66;4977635;28;1057;-61
2023/12/18 10:57:37;;;;;;;;;;;;;;;16.08;43.11;102131.38;4965874;28;1089;-60
2023/12/18 11:00:03;;;;;;;;;;;;;;;15.57;43.98;102139.91;4975702;28;1061;-59
2023/12/18 11:02:29;;;;;;;;;;;;;;;15.44;44.33;102140.47;4977783;28;1084;-61
2023/12/18 11:04:54;;;;;;;;;;;;;;;17.40;40.28;102134.44;4976249;28;1977;-62
2023/12/18 11:07:21;;;;;;;;;;;;;;;15.99;43.22;102130.00;4963848;28;1113;-62
2023/12/18 11:09:47;;;;;;;;;;;;;;;15.51;44.02;102123.38;4968039;28;939;-56
2023/12/18 11:12:13;;;;;;;;;;;;;;;16.18;43.46;102121.16;4964576;28;1148;-61
2023/12/18 11:14:39;;;;;;;;;;;;;;;16.96;40.95;102107.47;4976418;28;1081;-58
2023/12/18 11:17:04;;;;;;;;;;;;;;;15.77;43.71;102108.00;4960081;28;1228;-60
2023/12/18 11:19:37;;;;;;;;;;;;;;;15.40;44.00;102099.97;4967913;28;1096;-54
2023/12/18 11:22:04;;;;;;;;;;;;;;;17.02;40.93;102096.50;4962846;28;1235;-52
2023/12/18 11:24:34;;;;;;;;;;;;;;;15.74;43.60;102092.22;4965884;28;1119;-59
2023/12/18 11:27:00;;;;;;;;;;;;;;;15.42;44.01;102082.22;4963818;28;1136;-61
2023/12/18 11:29:37;;;;;;;;;;;;;;;17.35;40.55;102086.81;4966832;28;1148;-55
2023/12/18 11:32:03;;;;;;;;;;;;;;;16.00;42.69;102086.59;4960597;28;1124;-59
2023/12/18 11:34:29;;;;;;;;;;;;;;;15.40;44.37;102088.50;4956769;28;1108;-55
2023/12/18 11:36:54;;;;;;;;;;;;;;;16.95;41.57;102089.78;4957942;28;1177;-57
2023/12/18 11:39:20;;;;;;;;;;;;;;;16.67;41.61;102093.03;4957487;28;1128;-59
2023/12/18 11:41:47;;;;;;;;;;;;;;;15.76;43.54;102092.16;4960344;28;1025;-56
2023/12/18 11:44:13;;;;;;;;;;;;;;;15.49;43.81;102085.44;4972921;28;1052;-52
2023/12/18 11:46:38;;;;;;;;;;;;;;;15.34;44.26;102071.09;4962254;28;1914;-60
2023/12/18 11:49:07;;;;;;;;;;;;;;;16.69;42.07;102081.41;4959558;28;1130;-56
2023/12/18 11:51:33;;;;;;;;;;;;;;;15.90;43.52;102078.19;4974326;28;1077;-55
2023/12/18 11:53:59;;;;;;;;;;;;;;;16.26;43.02;102071.19;4961105;28;1029;-57
2023/12/18 11:56:24;;;;;;;;;;;;;;;17.21;40.42;102054.81;4973244;28;1098;-59
2023/12/18 11:58:50;;;;;;;;;;;;;;;15.98;43.37;102069.88;4975741;28;1380;-55
2023/12/18 12:01:15;;;;;;;;;;;;;;;15.53;44.64;102055.16;4977946;28;1191;-55
2023/12/18 12:03:41;;;;;;;;;;;;;;;17.69;39.91;102048.63;4961307;28;1126;-56
2023/12/18 12:06:07;;;;;;;;;;;;;;;16.08;42.90;102049.09;4976458;28;1910;-53
2023/12/18 12:08:32;;;;;;;;;;;;;;;16.30;43.04;102038.22;4979072;28;1104;-60
2023/12/18 12:10:58;;;;;;;;;;;;;;;16.96;41.00;102035.72;4952415;28;892;-51
2023/12/18 12:13:24;;;;;;;;;;;;;;;16.22;43.47;102040.41;4960036;28;1213;-54
2023/12/18 12:15:54;;;;;;;;;;;;;;;18.24;38.89;102038.41;4961157;28;1089;-54
2023/12/18 12:18:19;;;;;;;;;;;;;;;16.64;41.74;102041.81;4960645;28;1086;-51
2023/12/18 12:20:45;;;;;;;;;;;;;;;16.02;43.34;102043.13;4960239;28;1149;-57
2023/12/18 12:23:10;;;;;;;;;;;;;;;17.12;41.63;102034.88;4960741;28;878;-58
2023/12/18 12:25:36;;;;;;;;;;;;;;;16.37;42.61;102033.44;4960454;28;1895;-58
2023/12/18 12:28:01;;;;;;;;;;;;;;;15.85;43.55;102038.63;4960603;28;1215;-59
2023/12/18 12:30:27;;;;;;;;;;;;;;;15.57;43.88;102021.41;4960900;28;1103;-58
2023/12/18 12:32:52;;;;;;;;;;;;;;;15.86;44.10;102012.97;4954844;28;1369;-60
2023/12/18 12:35:18;;;;;;;;;;;;;;;16.33;42.60;102024.78;4960552;28;1028;-61
2023/12/18 12:37:45;;;;;;;;;;;;;;;15.55;44.26;102031.22;4960710;28;1404;-62
2023/12/18 12:40:11;;;;;;;;;;;;;;;17.64;40.28;102019.63;4960053;28;1291;-58
2023/12/18 12:42:38;;;;;;;;;;;;;;;16.18;43.14;102017.63;4961048;28;1041;-60
2023/12/18 12:45:06;;;;;;;;;;;;;;;15.55;44.61;102021.47;4959141;28;1963;-58
2023/12/18 12:47:33;;;;;;;;;;;;;;;16.27;43.38;102015.34;4963953;28;1043;-60